Batterdale, United Kingdom
Current Conditions -  °F | °C
As of 4:20 AM on Thursday 18 Dec 2014 (Local Time) from EGGW Reporting Station
Overcast Overcast  
Wind Chill: 54°   Ceiling: 800
Heat Index: 54°   Visibility: 6mi
Dew Point: 52°   Wind: 17mph
Humidity: 94%   Direction: 240°WSW
Pressure: 29.77"   Gusts: NA
Location:  51.76°N, 0.21°W
Report Text: EGGW 180420Z 24015KT 9999 OVC008 12/11 Q1008
Loading
Personal Weather Stations






























Interactive Weather Map New forecast layout! Learn more

10-Day Weather Forecast

Advertisements
Track Severe Weather on mobile